Time;durP1;ratioP1;P1;durP2;ratioP2;P2;SDS_P1;SDS_P2;PMS_P1;PMS_P2;Temp;Humidity;BMP_temperature;BMP_pressure;BME280_temperature;BME280_humidity;BME280_pressure;Samples;Min_cycle;Max_cycle;Signal;HPM_P1;HPM_P2
2023/06/07 00:01:19;;;;;;;14.18;6.43;;;;;;;;;;5024434;28;20026;-72
2023/06/07 00:03:48;;;;;;;12.75;6.38;;;;;;;;;;5025237;28;20084;-72
2023/06/07 00:06:14;;;;;;;15.23;6.95;;;;;;;;;;5023298;28;20120;-72
2023/06/07 00:08:40;;;;;;;15.25;6.40;;;;;;;;;;5024853;28;20116;-72
2023/06/07 00:11:05;;;;;;;12.57;6.43;;;;;;;;;;5020341;28;20467;-72
2023/06/07 00:13:31;;;;;;;13.00;6.43;;;;;;;;;;5009188;28;20030;-72
2023/06/07 00:15:57;;;;;;;16.33;6.78;;;;;;;;;;5024677;28;20466;-72
2023/06/07 00:18:22;;;;;;;12.98;6.75;;;;;;;;;;5022244;28;20396;-72
2023/06/07 00:20:49;;;;;;;14.63;6.38;;;;;;;;;;5023191;28;20033;-71
2023/06/07 00:23:18;;;;;;;17.58;7.55;;;;;;;;;;5024282;28;20535;-72
2023/06/07 00:25:44;;;;;;;15.45;6.88;;;;;;;;;;5022596;28;20021;-72
2023/06/07 00:28:09;;;;;;;15.95;6.82;;;;;;;;;;5024479;28;20025;-72
2023/06/07 00:30:35;;;;;;;14.35;6.60;;;;;;;;;;5024178;28;20041;-72
2023/06/07 00:33:00;;;;;;;16.02;6.43;;;;;;;;;;5023909;28;20033;-72
2023/06/07 00:35:25;;;;;;;13.93;6.63;;;;;;;;;;5024188;28;20045;-72
2023/06/07 00:37:51;;;;;;;21.75;6.68;;;;;;;;;;5024584;28;20029;-72
2023/06/07 00:40:16;;;;;;;11.88;6.47;;;;;;;;;;5024417;28;20108;-72
2023/06/07 00:42:42;;;;;;;15.88;7.15;;;;;;;;;;5022567;28;20412;-72
2023/06/07 00:45:08;;;;;;;12.88;6.75;;;;;;;;;;5023941;28;20116;-72
2023/06/07 00:47:36;;;;;;;15.05;6.88;;;;;;;;;;5023746;28;20037;-72
2023/06/07 00:50:03;;;;;;;13.65;7.07;;;;;;;;;;5021647;28;20056;-72
2023/06/07 00:52:28;;;;;;;16.13;6.70;;;;;;;;;;5024318;28;20032;-72
2023/06/07 00:54:54;;;;;;;13.80;6.68;;;;;;;;;;5024044;28;20033;-72
2023/06/07 00:57:20;;;;;;;14.05;6.22;;;;;;;;;;5024140;28;20410;-72
2023/06/07 00:59:45;;;;;;;12.95;6.57;;;;;;;;;;5022957;28;20030;-71
2023/06/07 01:02:14;;;;;;;21.30;7.43;;;;;;;;;;5025812;28;20044;-72
2023/06/07 01:04:42;;;;;;;10.98;5.82;;;;;;;;;;5032250;28;20017;-72
2023/06/07 01:07:08;;;;;;;12.30;6.35;;;;;;;;;;5036934;28;20226;-72
2023/06/07 01:09:35;;;;;;;13.60;6.60;;;;;;;;;;5025819;28;20507;-72
2023/06/07 01:12:02;;;;;;;13.50;6.50;;;;;;;;;;5013405;28;20030;-72
2023/06/07 01:14:30;;;;;;;18.63;6.93;;;;;;;;;;5022724;28;20081;-72
2023/06/07 01:16:57;;;;;;;16.40;6.95;;;;;;;;;;5022794;28;20083;-72
2023/06/07 01:19:27;;;;;;;13.95;6.97;;;;;;;;;;5023767;28;20499;-72
2023/06/07 01:21:58;;;;;;;18.00;7.20;;;;;;;;;;5023272;28;20029;-72
2023/06/07 01:24:23;;;;;;;18.92;7.00;;;;;;;;;;5023751;28;20033;-72
2023/06/07 01:26:56;;;;;;;14.85;7.07;;;;;;;;;;5023405;28;20415;-72
2023/06/07 01:29:24;;;;;;;15.35;8.43;;;;;;;;;;5022519;28;20022;-72
2023/06/07 01:31:51;;;;;;;14.55;6.80;;;;;;;;;;5022117;28;20407;-72
2023/06/07 01:34:17;;;;;;;14.57;6.80;;;;;;;;;;5024201;28;20133;-72
2023/06/07 01:36:43;;;;;;;12.10;6.68;;;;;;;;;;5023736;28;20033;-72
2023/06/07 01:39:10;;;;;;;17.55;7.32;;;;;;;;;;5018464;28;20144;-72
2023/06/07 01:41:36;;;;;;;14.77;7.25;;;;;;;;;;5008690;28;20065;-72
2023/06/07 01:44:01;;;;;;;18.50;7.20;;;;;;;;;;5015141;28;20084;-72
2023/06/07 01:46:29;;;;;;;14.10;6.55;;;;;;;;;;5006222;28;20017;-72
2023/06/07 01:48:54;;;;;;;15.85;6.60;;;;;;;;;;5013753;28;20037;-72
2023/06/07 01:51:20;;;;;;;17.85;7.80;;;;;;;;;;5020084;28;20057;-72
2023/06/07 01:53:47;;;;;;;15.45;7.35;;;;;;;;;;5031918;28;20026;-72
2023/06/07 01:56:43;;;;;;;16.25;7.45;;;;;;;;;;5023125;28;20115;-72
2023/06/07 01:59:27;;;;;;;14.82;6.97;;;;;;;;;;5012317;28;20033;-72
2023/06/07 02:02:04;;;;;;;16.73;6.93;;;;;;;;;;5021566;28;20059;-72
2023/06/07 02:04:31;;;;;;;15.73;6.57;;;;;;;;;;5023925;28;20073;-72
2023/06/07 02:07:01;;;;;;;15.75;7.38;;;;;;;;;;5033058;28;20033;-72
2023/06/07 02:09:27;;;;;;;19.98;7.30;;;;;;;;;;5018364;28;20077;-72
2023/06/07 02:11:53;;;;;;;19.83;7.60;;;;;;;;;;5021022;28;20060;-72
2023/06/07 02:14:20;;;;;;;17.50;7.15;;;;;;;;;;5027177;28;20033;-72
2023/06/07 02:16:46;;;;;;;18.58;6.93;;;;;;;;;;5026545;28;20025;-72
2023/06/07 02:19:13;;;;;;;14.82;7.13;;;;;;;;;;5027265;28;20032;-72
2023/06/07 02:21:39;;;;;;;16.63;7.13;;;;;;;;;;5023580;28;20034;-72
2023/06/07 02:24:05;;;;;;;23.50;7.47;;;;;;;;;;5032759;28;20455;-72
2023/06/07 02:26:32;;;;;;;14.93;7.05;;;;;;;;;;5015088;28;20037;-72
2023/06/07 02:28:58;;;;;;;14.60;7.13;;;;;;;;;;5032685;28;20029;-72
2023/06/07 02:31:23;;;;;;;18.95;7.75;;;;;;;;;;5041888;28;20161;-72
2023/06/07 02:33:49;;;;;;;12.38;7.18;;;;;;;;;;5041786;28;20099;-72
2023/06/07 02:36:14;;;;;;;16.75;7.55;;;;;;;;;;5029343;28;20128;-72
2023/06/07 02:38:40;;;;;;;20.88;7.88;;;;;;;;;;5027682;28;20057;-72
2023/06/07 02:41:05;;;;;;;17.25;7.45;;;;;;;;;;5026890;28;20047;-72
2023/06/07 02:43:30;;;;;;;17.63;7.10;;;;;;;;;;5025061;28;20044;-72
2023/06/07 02:45:56;;;;;;;15.70;7.00;;;;;;;;;;5026606;28;20029;-72
2023/06/07 02:48:22;;;;;;;15.18;7.32;;;;;;;;;;5032062;28;20033;-72
2023/06/07 02:50:47;;;;;;;16.30;7.38;;;;;;;;;;5029785;28;20506;-72
2023/06/07 02:53:13;;;;;;;16.73;7.57;;;;;;;;;;5026709;28;20083;-72
2023/06/07 02:55:38;;;;;;;17.13;7.80;;;;;;;;;;5025993;28;20790;-72
2023/06/07 02:58:05;;;;;;;13.77;6.97;;;;;;;;;;5026752;28;20033;-72
2023/06/07 03:00:31;;;;;;;17.15;7.45;;;;;;;;;;5024788;28;20033;-72
2023/06/07 03:02:56;;;;;;;16.55;7.75;;;;;;;;;;5025331;28;20084;-72
2023/06/07 03:05:22;;;;;;;15.75;7.03;;;;;;;;;;5025231;28;20440;-72
2023/06/07 03:07:50;;;;;;;17.90;7.75;;;;;;;;;;5026044;28;20052;-72
2023/06/07 03:10:15;;;;;;;15.50;6.93;;;;;;;;;;5025229;28;20083;-72
2023/06/07 03:12:41;;;;;;;18.17;7.60;;;;;;;;;;5021478;28;20139;-72
2023/06/07 03:15:07;;;;;;;15.00;7.80;;;;;;;;;;5025534;28;20034;-72
2023/06/07 03:17:33;;;;;;;17.15;7.50;;;;;;;;;;5024782;28;20455;-72
2023/06/07 03:19:58;;;;;;;20.90;7.80;;;;;;;;;;5025248;28;20175;-72
2023/06/07 03:22:24;;;;;;;14.25;6.95;;;;;;;;;;5024477;28;20037;-72
2023/06/07 03:24:52;;;;;;;21.40;7.78;;;;;;;;;;5025519;28;20575;-72
2023/06/07 03:27:17;;;;;;;15.50;7.28;;;;;;;;;;5023770;28;20125;-72
2023/06/07 03:29:43;;;;;;;18.42;7.57;;;;;;;;;;5025468;28;20113;-73
2023/06/07 03:32:08;;;;;;;19.90;7.63;;;;;;;;;;5023837;28;20037;-73
2023/06/07 03:34:34;;;;;;;16.42;6.82;;;;;;;;;;5024484;28;20037;-72
2023/06/07 03:36:59;;;;;;;16.52;7.28;;;;;;;;;;5025634;28;20418;-72
2023/06/07 03:39:24;;;;;;;19.45;8.18;;;;;;;;;;5023941;28;20057;-72
2023/06/07 03:41:50;;;;;;;16.42;7.50;;;;;;;;;;5025354;28;20033;-72
2023/06/07 03:44:15;;;;;;;19.52;7.55;;;;;;;;;;5025817;28;20033;-72
2023/06/07 03:46:42;;;;;;;14.20;7.40;;;;;;;;;;5025073;28;20037;-72
2023/06/07 03:49:07;;;;;;;25.35;7.85;;;;;;;;;;5025533;28;20033;-72
2023/06/07 03:51:33;;;;;;;17.52;7.95;;;;;;;;;;5025996;28;20110;-72
2023/06/07 03:53:58;;;;;;;17.52;7.30;;;;;;;;;;5028594;28;20044;-72
2023/06/07 03:56:25;;;;;;;18.25;7.68;;;;;;;;;;5037654;28;20041;-72
2023/06/07 03:58:53;;;;;;;18.00;7.45;;;;;;;;;;5035767;28;20033;-72
2023/06/07 04:01:18;;;;;;;17.08;8.13;;;;;;;;;;5025310;28;20033;-73
2023/06/07 04:03:44;;;;;;;14.75;7.82;;;;;;;;;;5024200;28;20065;-72
2023/06/07 04:06:09;;;;;;;19.92;7.78;;;;;;;;;;5024548;28;20042;-72
2023/06/07 04:08:38;;;;;;;17.83;7.65;;;;;;;;;;5023008;28;20521;-72
2023/06/07 04:11:04;;;;;;;17.35;7.75;;;;;;;;;;5020644;28;20121;-73
2023/06/07 04:13:30;;;;;;;15.63;7.13;;;;;;;;;;5020625;28;20097;-72
2023/06/07 04:15:55;;;;;;;16.33;7.18;;;;;;;;;;5024871;28;20410;-72
2023/06/07 04:18:21;;;;;;;16.90;7.90;;;;;;;;;;5022188;28;20037;-72
2023/06/07 04:20:46;;;;;;;15.98;7.85;;;;;;;;;;5022923;28;20041;-72
2023/06/07 04:23:11;;;;;;;17.00;7.57;;;;;;;;;;5024285;28;20452;-72
2023/06/07 04:25:38;;;;;;;14.43;7.40;;;;;;;;;;5024613;28;20017;-72
2023/06/07 04:28:03;;;;;;;17.15;7.30;;;;;;;;;;5024153;28;20143;-72
2023/06/07 04:30:34;;;;;;;17.55;7.90;;;;;;;;;;5024223;28;20475;-72
2023/06/07 04:33:04;;;;;;;16.98;7.15;;;;;;;;;;5024061;28;20033;-72
2023/06/07 04:35:31;;;;;;;16.35;7.70;;;;;;;;;;5022707;28;20033;-72
2023/06/07 04:37:57;;;;;;;20.13;8.07;;;;;;;;;;5023759;28;20029;-72
2023/06/07 04:40:23;;;;;;;22.65;7.53;;;;;;;;;;5023517;28;20030;-72
2023/06/07 04:43:08;;;;;;;18.23;7.22;;;;;;;;;;5023677;28;20036;-72
2023/06/07 04:45:40;;;;;;;14.60;7.25;;;;;;;;;;5022981;28;20034;-72
2023/06/07 04:48:11;;;;;;;18.58;7.88;;;;;;;;;;5022652;28;20040;-72
2023/06/07 04:50:38;;;;;;;17.83;7.50;;;;;;;;;;5023405;28;20033;-72
2023/06/07 04:53:04;;;;;;;16.02;7.70;;;;;;;;;;5024449;28;20045;-73
2023/06/07 04:55:34;;;;;;;21.63;8.73;;;;;;;;;;5022778;28;20021;-73
2023/06/07 04:58:00;;;;;;;14.15;7.28;;;;;;;;;;5022993;28;20518;-73
2023/06/07 05:00:26;;;;;;;17.13;7.60;;;;;;;;;;5020113;28;20044;-73
2023/06/07 05:02:53;;;;;;;14.85;7.38;;;;;;;;;;5022769;28;20053;-73
2023/06/07 05:05:19;;;;;;;13.23;7.55;;;;;;;;;;5021033;28;20056;-73
2023/06/07 05:07:46;;;;;;;14.35;7.82;;;;;;;;;;5024181;28;20044;-72
2023/06/07 05:10:12;;;;;;;13.55;7.18;;;;;;;;;;5022477;28;20056;-72
2023/06/07 05:12:38;;;;;;;13.88;7.53;;;;;;;;;;5022626;28;20033;-72
2023/06/07 05:15:05;;;;;;;19.58;9.35;;;;;;;;;;5022908;28;20457;-73
2023/06/07 05:17:30;;;;;;;13.77;7.20;;;;;;;;;;5024071;28;20089;-73
2023/06/07 05:19:55;;;;;;;16.90;7.50;;;;;;;;;;5017213;28;20543;-72
2023/06/07 05:22:21;;;;;;;17.08;7.90;;;;;;;;;;5013309;28;20078;-72
2023/06/07 05:24:47;;;;;;;19.20;7.75;;;;;;;;;;5020194;28;20034;-72
2023/06/07 05:27:12;;;;;;;21.83;8.73;;;;;;;;;;5016677;28;20037;-72
2023/06/07 05:29:37;;;;;;;21.95;7.93;;;;;;;;;;5020850;28;20128;-72
2023/06/07 05:32:03;;;;;;;15.55;8.07;;;;;;;;;;5023872;28;20029;-72
2023/06/07 05:34:28;;;;;;;17.25;7.95;;;;;;;;;;5023077;28;20204;-72
2023/06/07 05:36:55;;;;;;;21.70;8.23;;;;;;;;;;5017053;28;20190;-72
2023/06/07 05:39:20;;;;;;;17.17;7.68;;;;;;;;;;5022309;28;20133;-72
2023/06/07 05:41:46;;;;;;;16.50;8.25;;;;;;;;;;5025798;28;20120;-72
2023/06/07 05:44:11;;;;;;;15.23;8.82;;;;;;;;;;5027065;28;20091;-72
2023/06/07 05:46:37;;;;;;;18.98;7.95;;;;;;;;;;5026343;28;20030;-72
2023/06/07 05:49:02;;;;;;;18.42;7.53;;;;;;;;;;5024761;28;20041;-72
2023/06/07 05:51:28;;;;;;;13.40;6.95;;;;;;;;;;5025794;28;20038;-72
2023/06/07 05:53:53;;;;;;;40.58;11.25;;;;;;;;;;5021713;28;20574;-72
2023/06/07 05:56:21;;;;;;;27.85;8.95;;;;;;;;;;5014242;28;20072;-72
2023/06/07 05:58:49;;;;;;;22.67;8.80;;;;;;;;;;5016488;28;20159;-72
2023/06/07 06:01:15;;;;;;;18.73;8.38;;;;;;;;;;5018317;28;20024;-72
2023/06/07 06:03:40;;;;;;;26.73;8.30;;;;;;;;;;5015135;28;20088;-72
2023/06/07 06:06:16;;;;;;;21.15;8.13;;;;;;;;;;5017299;28;20061;-72
2023/06/07 06:08:42;;;;;;;17.58;7.85;;;;;;;;;;5013030;28;20515;-72
2023/06/07 06:11:12;;;;;;;17.30;7.55;;;;;;;;;;5022949;28;20498;-72
2023/06/07 06:13:39;;;;;;;19.98;8.02;;;;;;;;;;5024813;28;20033;-72
2023/06/07 06:16:05;;;;;;;18.02;8.05;;;;;;;;;;5024774;28;20057;-72
2023/06/07 06:18:30;;;;;;;20.98;8.40;;;;;;;;;;5012264;28;20127;-72
2023/06/07 06:20:55;;;;;;;20.63;8.70;;;;;;;;;;5016412;28;20474;-72
2023/06/07 06:23:21;;;;;;;19.08;7.90;;;;;;;;;;5016332;28;20057;-72
2023/06/07 06:25:46;;;;;;;17.88;8.18;;;;;;;;;;5014924;28;20112;-72
2023/06/07 06:28:12;;;;;;;18.58;8.38;;;;;;;;;;5017548;28;20191;-72
2023/06/07 06:30:37;;;;;;;16.83;8.25;;;;;;;;;;5023588;28;20634;-72
2023/06/07 06:33:03;;;;;;;17.85;7.97;;;;;;;;;;5025687;28;20079;-72
2023/06/07 06:35:29;;;;;;;19.60;8.63;;;;;;;;;;5025197;28;20045;-72
2023/06/07 06:37:54;;;;;;;28.30;9.13;;;;;;;;;;5025109;28;20029;-72
2023/06/07 06:40:20;;;;;;;19.50;8.30;;;;;;;;;;5026737;28;20025;-72
2023/06/07 06:42:46;;;;;;;17.10;8.80;;;;;;;;;;5025163;28;20135;-72
2023/06/07 06:45:11;;;;;;;20.35;8.48;;;;;;;;;;5011731;28;20080;-72
2023/06/07 06:47:41;;;;;;;19.63;8.55;;;;;;;;;;5025346;28;20068;-72
2023/06/07 06:50:11;;;;;;;29.35;8.73;;;;;;;;;;5027580;28;20664;-72
2023/06/07 06:52:41;;;;;;;25.70;8.95;;;;;;;;;;5018804;28;20064;-72
2023/06/07 06:55:07;;;;;;;24.05;8.70;;;;;;;;;;5030610;28;20036;-72
2023/06/07 06:57:32;;;;;;;30.83;9.10;;;;;;;;;;5025727;28;20810;-71
2023/06/07 06:59:59;;;;;;;22.08;8.90;;;;;;;;;;5023906;28;20037;-71
2023/06/07 07:02:24;;;;;;;18.50;10.38;;;;;;;;;;5023157;28;20064;-71
2023/06/07 07:04:50;;;;;;;22.42;8.98;;;;;;;;;;5020429;28;20033;-71
2023/06/07 07:07:15;;;;;;;24.08;9.05;;;;;;;;;;5018148;28;20502;-72
2023/06/07 07:09:41;;;;;;;22.33;9.20;;;;;;;;;;5018463;28;20080;-73
2023/06/07 07:12:07;;;;;;;17.88;8.57;;;;;;;;;;5015791;28;20053;-73
2023/06/07 07:14:32;;;;;;;23.95;8.73;;;;;;;;;;5021351;28;20033;-72
2023/06/07 07:16:57;;;;;;;22.15;8.95;;;;;;;;;;5023645;28;20529;-72
2023/06/07 07:19:23;;;;;;;19.92;8.85;;;;;;;;;;5025948;28;20496;-72
2023/06/07 07:21:48;;;;;;;32.90;9.23;;;;;;;;;;5023752;28;20059;-72
2023/06/07 07:24:13;;;;;;;23.90;8.93;;;;;;;;;;5014346;28;20049;-72
2023/06/07 07:26:39;;;;;;;19.42;8.98;;;;;;;;;;5011821;28;20037;-72
2023/06/07 07:29:05;;;;;;;19.05;9.05;;;;;;;;;;5016582;28;20037;-72
2023/06/07 07:31:33;;;;;;;21.48;8.90;;;;;;;;;;5025351;28;20029;-72
2023/06/07 07:33:59;;;;;;;18.48;8.80;;;;;;;;;;5021449;28;20112;-72
2023/06/07 07:36:24;;;;;;;20.73;8.80;;;;;;;;;;5016818;28;20050;-72
2023/06/07 07:38:51;;;;;;;14.70;8.60;;;;;;;;;;5011286;28;20072;-72
2023/06/07 07:41:17;;;;;;;16.77;8.93;;;;;;;;;;5021716;28;20029;-72
2023/06/07 07:43:43;;;;;;;16.95;9.18;;;;;;;;;;5024273;28;20037;-72
2023/06/07 07:46:08;;;;;;;20.75;9.90;;;;;;;;;;5024516;28;20064;-73
2023/06/07 07:48:34;;;;;;;17.63;9.05;;;;;;;;;;5020332;28;20125;-72
2023/06/07 07:50:59;;;;;;;16.08;9.13;;;;;;;;;;5020247;28;20042;-71
2023/06/07 07:53:25;;;;;;;19.98;9.32;;;;;;;;;;5014929;28;20129;-72
2023/06/07 07:55:51;;;;;;;20.00;10.10;;;;;;;;;;5013003;28;20060;-73
2023/06/07 07:58:16;;;;;;;19.50;9.30;;;;;;;;;;5019267;28;20022;-71
2023/06/07 08:00:42;;;;;;;17.92;8.98;;;;;;;;;;5018908;28;20610;-72
2023/06/07 08:03:08;;;;;;;17.02;9.77;;;;;;;;;;5018036;28;20053;-71
2023/06/07 08:05:33;;;;;;;19.17;9.40;;;;;;;;;;5013650;28;20426;-72
2023/06/07 08:07:58;;;;;;;22.17;9.45;;;;;;;;;;5019322;28;20686;-71
2023/06/07 08:10:24;;;;;;;28.55;9.90;;;;;;;;;;5023073;28;20111;-72
2023/06/07 08:12:50;;;;;;;18.75;9.10;;;;;;;;;;5033391;28;20065;-72
2023/06/07 08:15:16;;;;;;;22.15;9.23;;;;;;;;;;5026747;28;20132;-71
2023/06/07 08:17:41;;;;;;;14.95;8.95;;;;;;;;;;5017899;28;20128;-71
2023/06/07 08:20:08;;;;;;;18.35;9.80;;;;;;;;;;5013638;28;20515;-71
2023/06/07 08:22:35;;;;;;;25.33;10.10;;;;;;;;;;5015230;28;20570;-71
2023/06/07 08:25:00;;;;;;;19.30;9.50;;;;;;;;;;5014953;28;20530;-72
2023/06/07 08:27:26;;;;;;;32.10;11.05;;;;;;;;;;5016969;28;20053;-72
2023/06/07 08:29:51;;;;;;;14.20;8.63;;;;;;;;;;5013517;28;20759;-71
2023/06/07 08:32:16;;;;;;;17.50;9.60;;;;;;;;;;5017564;28;20565;-71
2023/06/07 08:34:42;;;;;;;20.73;9.77;;;;;;;;;;5018420;28;20029;-72
2023/06/07 08:37:07;;;;;;;19.52;10.30;;;;;;;;;;5012937;28;20032;-72
2023/06/07 08:39:33;;;;;;;16.35;8.98;;;;;;;;;;5012472;28;20096;-71
2023/06/07 08:41:59;;;;;;;24.63;9.40;;;;;;;;;;5009573;28;20041;-71
2023/06/07 08:44:24;;;;;;;20.25;9.38;;;;;;;;;;5016680;28;20531;-72
2023/06/07 08:46:51;;;;;;;21.05;9.93;;;;;;;;;;5016830;28;20148;-71
2023/06/07 08:49:17;;;;;;;22.05;10.18;;;;;;;;;;5018869;28;20028;-71
2023/06/07 08:51:43;;;;;;;20.00;10.27;;;;;;;;;;5017767;28;20045;-71
2023/06/07 08:54:10;;;;;;;18.90;10.40;;;;;;;;;;5014756;28;20569;-72
2023/06/07 08:56:38;;;;;;;20.02;10.25;;;;;;;;;;5012077;28;20054;-72
2023/06/07 08:59:05;;;;;;;17.55;9.93;;;;;;;;;;5019874;28;20041;-72
2023/06/07 09:01:34;;;;;;;20.85;9.23;;;;;;;;;;5013329;28;20025;-71
2023/06/07 09:04:00;;;;;;;19.45;9.43;;;;;;;;;;5007042;28;20057;-72
2023/06/07 09:06:26;;;;;;;20.75;9.63;;;;;;;;;;5016958;28;20049;-72
2023/06/07 09:08:52;;;;;;;17.75;10.27;;;;;;;;;;5016111;28;20044;-71
2023/06/07 09:11:17;;;;;;;23.17;11.07;;;;;;;;;;5009718;28;20037;-72
2023/06/07 09:13:43;;;;;;;19.88;9.48;;;;;;;;;;5014849;28;20044;-71
2023/06/07 09:16:12;;;;;;;17.60;10.00;;;;;;;;;;5010173;28;20389;-72
2023/06/07 09:18:44;;;;;;;23.55;9.60;;;;;;;;;;5014391;28;20037;-71
2023/06/07 09:21:27;;;;;;;19.65;10.07;;;;;;;;;;5008466;28;20075;-71
2023/06/07 09:23:55;;;;;;;17.77;9.27;;;;;;;;;;5014061;28;20108;-72
2023/06/07 09:26:22;;;;;;;16.38;8.40;;;;;;;;;;5014658;28;20068;-72
2023/06/07 09:28:48;;;;;;;18.20;8.98;;;;;;;;;;5017294;28;20033;-72
2023/06/07 09:31:32;;;;;;;18.92;9.35;;;;;;;;;;5010976;28;21458;-71
2023/06/07 09:33:58;;;;;;;22.55;10.05;;;;;;;;;;5014612;28;20033;-71
2023/06/07 09:36:23;;;;;;;19.13;9.50;;;;;;;;;;5024943;28;20129;-72
2023/06/07 09:38:49;;;;;;;24.38;10.20;;;;;;;;;;5020061;28;20050;-72
2023/06/07 09:41:14;;;;;;;16.75;9.45;;;;;;;;;;5009835;28;20072;-72
2023/06/07 09:43:46;;;;;;;21.42;10.32;;;;;;;;;;5014101;28;20403;-72
2023/06/07 09:46:13;;;;;;;17.88;9.27;;;;;;;;;;5012476;28;20086;-71
2023/06/07 09:48:45;;;;;;;21.38;9.57;;;;;;;;;;5012721;28;20037;-72
2023/06/07 09:51:10;;;;;;;19.55;10.00;;;;;;;;;;5014994;28;20038;-72
2023/06/07 09:54:05;;;;;;;19.45;9.68;;;;;;;;;;5011225;28;20045;-72
2023/06/07 09:56:30;;;;;;;20.13;10.13;;;;;;;;;;5011275;28;20494;-72
2023/06/07 09:59:07;;;;;;;20.98;10.00;;;;;;;;;;5015482;28;20037;-72
2023/06/07 10:01:34;;;;;;;15.93;8.70;;;;;;;;;;5016025;28;20412;-72
2023/06/07 10:04:01;;;;;;;21.20;9.43;;;;;;;;;;5008960;28;20221;-72
2023/06/07 10:06:30;;;;;;;19.27;9.18;;;;;;;;;;5013615;28;20487;-72
2023/06/07 10:08:59;;;;;;;22.33;10.55;;;;;;;;;;5018767;28;20037;-72
2023/06/07 10:11:26;;;;;;;18.75;10.25;;;;;;;;;;5012206;28;20125;-71
2023/06/07 10:13:53;;;;;;;18.98;9.57;;;;;;;;;;5012265;28;20025;-71
2023/06/07 10:16:20;;;;;;;17.08;9.10;;;;;;;;;;5014745;28;20025;-72
2023/06/07 10:18:47;;;;;;;23.85;10.27;;;;;;;;;;5012343;28;20105;-72
2023/06/07 10:21:18;;;;;;;22.15;9.63;;;;;;;;;;5015477;28;20037;-72
2023/06/07 10:24:04;;;;;;;22.35;11.20;;;;;;;;;;5013349;28;20111;-71
2023/06/07 10:26:53;;;;;;;17.33;10.07;;;;;;;;;;5014072;28;20042;-72
2023/06/07 10:29:28;;;;;;;17.27;10.20;;;;;;;;;;5012303;28;20037;-72
2023/06/07 10:32:06;;;;;;;20.08;10.48;;;;;;;;;;5015570;28;20116;-72
2023/06/07 10:34:32;;;;;;;15.98;10.18;;;;;;;;;;5018604;28;20029;-72
2023/06/07 10:36:58;;;;;;;19.65;10.13;;;;;;;;;;5016391;28;20247;-71
2023/06/07 10:39:24;;;;;;;24.58;10.80;;;;;;;;;;5016741;28;20045;-71
2023/06/07 10:41:50;;;;;;;22.15;10.65;;;;;;;;;;5020398;28;20056;-71
2023/06/07 10:44:16;;;;;;;22.90;10.40;;;;;;;;;;5026615;28;20049;-72
2023/06/07 10:46:41;;;;;;;18.42;10.20;;;;;;;;;;5024653;28;20035;-71
2023/06/07 10:49:36;;;;;;;22.92;9.85;;;;;;;;;;5021075;28;20033;-71
2023/06/07 10:52:03;;;;;;;20.70;11.10;;;;;;;;;;5015740;28;20069;-72
2023/06/07 10:54:32;;;;;;;22.73;12.38;;;;;;;;;;5025041;28;20044;-72
2023/06/07 10:57:02;;;;;;;23.45;12.00;;;;;;;;;;5024610;28;20041;-71
2023/06/07 10:59:28;;;;;;;24.92;11.68;;;;;;;;;;5034484;28;20033;-71
2023/06/07 11:02:23;;;;;;;21.20;10.45;;;;;;;;;;5042792;28;20025;-72
2023/06/07 11:04:49;;;;;;;21.95;11.40;;;;;;;;;;5031123;28;20038;-71
2023/06/07 11:07:22;;;;;;;22.45;10.80;;;;;;;;;;5019588;28;20025;-71
2023/06/07 11:09:48;;;;;;;20.17;10.93;;;;;;;;;;5009210;28;20123;-72
2023/06/07 11:12:35;;;;;;;27.55;11.82;;;;;;;;;;5011847;28;20045;-72
2023/06/07 11:15:20;;;;;;;20.52;10.98;;;;;;;;;;5015226;28;20037;-71
2023/06/07 11:17:56;;;;;;;19.35;10.30;;;;;;;;;;5014797;28;20052;-71
2023/06/07 11:20:40;;;;;;;19.83;11.70;;;;;;;;;;5020767;28;20078;-71
2023/06/07 11:23:28;;;;;;;20.63;10.18;;;;;;;;;;5015849;28;20039;-71
2023/06/07 11:26:08;;;;;;;20.83;10.50;;;;;;;;;;5012879;28;20466;-71
2023/06/07 11:28:37;;;;;;;17.23;9.40;;;;;;;;;;5016583;28;20430;-71
2023/06/07 11:31:03;;;;;;;16.80;9.90;;;;;;;;;;5012598;28;20041;-71
2023/06/07 11:33:30;;;;;;;19.67;11.10;;;;;;;;;;5011557;28;20057;-71
2023/06/07 11:35:56;;;;;;;18.90;9.50;;;;;;;;;;5018839;28;20131;-71
2023/06/07 11:38:23;;;;;;;17.80;9.70;;;;;;;;;;5012013;28;20762;-71
2023/06/07 11:40:48;;;;;;;20.23;9.90;;;;;;;;;;5009952;28;20032;-71
2023/06/07 11:43:17;;;;;;;19.27;9.98;;;;;;;;;;5016803;28;20033;-71
2023/06/07 11:45:43;;;;;;;18.88;10.68;;;;;;;;;;5010865;28;20030;-71
2023/06/07 11:48:09;;;;;;;16.48;9.73;;;;;;;;;;5014660;28;20038;-71
2023/06/07 11:50:38;;;;;;;27.30;10.27;;;;;;;;;;5009237;28;20034;-71
2023/06/07 11:53:06;;;;;;;17.98;9.05;;;;;;;;;;5012753;28;20690;-71
2023/06/07 11:55:32;;;;;;;15.02;9.25;;;;;;;;;;5016703;28;20021;-71
2023/06/07 11:58:01;;;;;;;20.15;8.75;;;;;;;;;;5019183;28;20033;-72
2023/06/07 12:00:29;;;;;;;16.40;8.32;;;;;;;;;;5010166;28;20034;-71
2023/06/07 12:02:55;;;;;;;15.80;9.00;;;;;;;;;;5017774;28;20045;-71
2023/06/07 12:05:29;;;;;;;19.13;10.25;;;;;;;;;;5012470;28;20392;-71
2023/06/07 12:07:58;;;;;;;15.63;8.20;;;;;;;;;;5019361;28;20037;-71
2023/06/07 12:10:25;;;;;;;13.77;7.72;;;;;;;;;;5013071;28;20034;-71
2023/06/07 12:13:11;;;;;;;15.10;9.13;;;;;;;;;;5014452;28;20041;-71
2023/06/07 12:15:46;;;;;;;13.10;8.20;;;;;;;;;;5009012;28;20045;-71
2023/06/07 12:18:16;;;;;;;18.40;8.15;;;;;;;;;;5015872;28;20680;-71
2023/06/07 12:20:42;;;;;;;16.85;8.55;;;;;;;;;;5017931;28;20783;-71
2023/06/07 12:23:09;;;;;;;17.65;8.18;;;;;;;;;;5021700;28;20029;-72
2023/06/07 12:25:34;;;;;;;12.45;8.13;;;;;;;;;;5027878;28;20017;-71
2023/06/07 12:28:09;;;;;;;15.32;8.40;;;;;;;;;;5025907;28;20148;-71
2023/06/07 12:30:38;;;;;;;12.95;7.68;;;;;;;;;;5012652;28;20033;-71
2023/06/07 12:33:04;;;;;;;16.17;8.57;;;;;;;;;;5013956;28;20407;-71
2023/06/07 12:35:38;;;;;;;14.18;8.30;;;;;;;;;;5012961;28;20537;-71
2023/06/07 12:38:07;;;;;;;17.23;9.35;;;;;;;;;;5009662;28;20030;-71
2023/06/07 12:40:33;;;;;;;13.07;8.38;;;;;;;;;;5005954;28;20410;-71
2023/06/07 12:42:59;;;;;;;15.52;8.73;;;;;;;;;;5013127;28;20420;-71
2023/06/07 12:45:24;;;;;;;12.80;8.60;;;;;;;;;;5012899;28;20773;-71
2023/06/07 12:47:50;;;;;;;14.60;8.10;;;;;;;;;;5017149;28;20042;-71
2023/06/07 12:50:15;;;;;;;14.45;7.63;;;;;;;;;;5010803;28;20040;-71
2023/06/07 12:52:42;;;;;;;16.23;7.15;;;;;;;;;;5012439;28;20078;-71
2023/06/07 12:55:07;;;;;;;11.73;7.90;;;;;;;;;;5012062;28;20129;-72
2023/06/07 12:57:32;;;;;;;12.27;7.00;;;;;;;;;;5012569;28;20045;-71
2023/06/07 12:59:58;;;;;;;9.90;6.60;;;;;;;;;;5012410;28;20044;-71
2023/06/07 13:02:23;;;;;;;9.85;6.75;;;;;;;;;;5029178;28;20054;-71
2023/06/07 13:04:48;;;;;;;8.73;7.07;;;;;;;;;;5016282;28;20052;-71
2023/06/07 13:07:14;;;;;;;13.95;7.38;;;;;;;;;;5015804;28;20016;-71
2023/06/07 13:09:39;;;;;;;9.85;6.63;;;;;;;;;;5011044;28;20048;-71
2023/06/07 13:12:06;;;;;;;10.93;6.70;;;;;;;;;;5015522;28;20035;-71
2023/06/07 13:14:32;;;;;;;13.93;7.47;;;;;;;;;;5015014;28;20037;-71
2023/06/07 13:16:57;;;;;;;9.98;7.03;;;;;;;;;;5013516;28;20044;-71
2023/06/07 13:19:23;;;;;;;14.63;7.18;;;;;;;;;;5015920;28;20026;-71
2023/06/07 13:21:48;;;;;;;12.48;7.35;;;;;;;;;;5016557;28;20037;-71
2023/06/07 13:24:14;;;;;;;10.55;6.88;;;;;;;;;;5012936;28;20029;-71
2023/06/07 13:26:39;;;;;;;10.52;6.78;;;;;;;;;;5015032;28;20064;-71
2023/06/07 13:29:04;;;;;;;7.82;5.57;;;;;;;;;;5018073;28;20032;-71
2023/06/07 13:31:30;;;;;;;11.32;6.70;;;;;;;;;;5015450;28;20022;-71
2023/06/07 13:33:55;;;;;;;9.35;7.18;;;;;;;;;;5014296;28;20620;-71
2023/06/07 13:36:20;;;;;;;11.63;6.25;;;;;;;;;;5012379;28;20226;-71
2023/06/07 13:38:46;;;;;;;10.50;6.68;;;;;;;;;;5015029;28;20059;-70
2023/06/07 13:41:11;;;;;;;8.95;6.97;;;;;;;;;;5013352;28;20534;-71
2023/06/07 13:43:37;;;;;;;8.00;6.00;;;;;;;;;;5012933;28;20068;-71
2023/06/07 13:46:02;;;;;;;9.18;5.72;;;;;;;;;;5010542;28;20025;-71
2023/06/07 13:48:31;;;;;;;11.18;6.38;;;;;;;;;;5016857;28;20041;-71
2023/06/07 13:50:56;;;;;;;11.77;6.05;;;;;;;;;;5021839;28;20131;-71
2023/06/07 13:53:22;;;;;;;10.30;6.10;;;;;;;;;;5028759;28;20462;-71
2023/06/07 13:55:49;;;;;;;11.25;6.75;;;;;;;;;;5018328;28;20025;-71
2023/06/07 13:58:14;;;;;;;10.70;6.40;;;;;;;;;;5017420;28;20048;-71
2023/06/07 14:00:40;;;;;;;7.45;6.35;;;;;;;;;;5018540;28;20048;-71
2023/06/07 14:03:07;;;;;;;10.95;6.25;;;;;;;;;;5012054;28;20096;-71
2023/06/07 14:05:32;;;;;;;11.25;6.78;;;;;;;;;;5014858;28;20796;-71
2023/06/07 14:07:57;;;;;;;8.65;6.18;;;;;;;;;;5016377;28;20048;-71
2023/06/07 14:10:23;;;;;;;13.90;6.60;;;;;;;;;;5018880;28;20029;-72
2023/06/07 14:12:48;;;;;;;10.70;6.43;;;;;;;;;;5018199;28;20049;-71
2023/06/07 14:15:13;;;;;;;12.27;5.80;;;;;;;;;;5010282;28;20033;-71
2023/06/07 14:17:39;;;;;;;10.05;5.82;;;;;;;;;;5020570;28;20544;-71
2023/06/07 14:20:07;;;;;;;9.18;5.60;;;;;;;;;;5015960;28;20029;-71
2023/06/07 14:22:32;;;;;;;6.65;5.25;;;;;;;;;;5006682;28;20136;-71
2023/06/07 14:24:57;;;;;;;7.63;5.22;;;;;;;;;;5008671;28;20075;-71
2023/06/07 14:27:23;;;;;;;7.78;6.38;;;;;;;;;;5015681;28;20128;-71
2023/06/07 14:29:48;;;;;;;7.07;5.10;;;;;;;;;;5015533;28;20091;-71